Terminal Aerodrome Forecast
Issued by NWS Charleston, SC

Home | Current Version | Previous Version | Text Only | Print | Product List | Glossary On
Versions: 1 2 3 4 5 6 7 8 9 10 11 12 13 14 15 16 17 18
610
FTUS42 KCHS 242335
TAFSAV
TAF
KSAV 242335Z 2500/2524 27011KT P6SM SCT025 BKN040
     FM250400 28009KT P6SM SCT012 BKN022
     FM250700 28008KT P6SM BKN012
     FM251500 29013G20KT P6SM SCT015 BKN025
     FM251800 18012KT P6SM SCT030 SCT060=

USA.gov is the U.S. government's official web portal to all federal, state and local government web resources and services.